createdAt,value
2022-12-27T00:00:55.530Z,98368.47
2022-12-27T00:03:22.627Z,98378.25
2022-12-27T00:05:49.317Z,98372.00
2022-12-27T00:08:18.854Z,98367.66
2022-12-27T00:10:45.426Z,98357.19
2022-12-27T00:13:12.118Z,98358.00
2022-12-27T00:15:38.671Z,98325.69
2022-12-27T00:18:05.332Z,98337.63
2022-12-27T00:20:31.878Z,98332.34
2022-12-27T00:23:00.994Z,98319.59
2022-12-27T00:25:28.207Z,98331.50
2022-12-27T00:27:55.228Z,98327.03
2022-12-27T00:30:21.832Z,98330.09
2022-12-27T00:32:48.461Z,98332.47
2022-12-27T00:35:15.113Z,98336.94
2022-12-27T00:37:41.706Z,98318.91
2022-12-27T00:42:21.681Z,98335.25
2022-12-27T00:44:48.309Z,98337.47
2022-12-27T00:47:14.887Z,98329.38
2022-12-27T00:49:41.499Z,98325.88
2022-12-27T00:52:08.065Z,98313.59
2022-12-27T00:54:34.995Z,98309.41
2022-12-27T00:57:01.563Z,98307.44
2022-12-27T00:59:28.211Z,98297.69
2022-12-27T01:01:54.858Z,98303.13
2022-12-27T01:04:21.554Z,98304.09
2022-12-27T01:06:48.036Z,98298.91
2022-12-27T01:09:17.440Z,98301.44
2022-12-27T01:14:02.320Z,98296.16
2022-12-27T01:16:30.903Z,98293.59
2022-12-27T01:19:00.873Z,98290.25
2022-12-27T01:21:30.653Z,98294.47
2022-12-27T01:23:58.196Z,98297.25
2022-12-27T01:26:25.441Z,98295.44
2022-12-27T01:28:53.583Z,98303.38
2022-12-27T01:31:26.040Z,98286.66
2022-12-27T01:34:00.434Z,98270.41
2022-12-27T01:36:29.058Z,98275.56
2022-12-27T01:38:57.648Z,98233.63
2022-12-27T01:41:44.290Z,98270.03
2022-12-27T01:44:39.471Z,98277.13
2022-12-27T01:47:34.051Z,98286.88
2022-12-27T01:50:09.678Z,98298.31
2022-12-27T01:52:46.278Z,98280.88
2022-12-27T01:55:23.372Z,98281.72
2022-12-27T01:57:53.096Z,98286.16
2022-12-27T02:02:53.144Z,98284.63
2022-12-27T02:05:22.130Z,98287.03
2022-12-27T02:08:19.580Z,98290.50
2022-12-27T02:10:46.622Z,98293.28
2022-12-27T02:13:16.111Z,98294.13
2022-12-27T02:15:42.870Z,98282.69
2022-12-27T02:18:09.502Z,98295.94
2022-12-27T02:21:05.946Z,98257.47
2022-12-27T02:23:54.202Z,98292.47
2022-12-27T02:26:33.185Z,98296.91
2022-12-27T02:29:02.778Z,98306.69
2022-12-27T02:31:58.709Z,98304.03
2022-12-27T02:34:30.420Z,98310.28
2022-12-27T02:37:03.143Z,98327.00
2022-12-27T02:39:36.074Z,98317.78
2022-12-27T02:42:22.816Z,98328.25
2022-12-27T02:45:07.971Z,98319.19
2022-12-27T02:47:54.586Z,98327.16
2022-12-27T02:50:40.083Z,98316.81
2022-12-27T02:53:17.972Z,98327.28
2022-12-27T02:58:52.014Z,98349.31
2022-12-27T03:01:43.345Z,98359.09
2022-12-27T03:04:32.705Z,98361.00
2022-12-27T03:07:08.174Z,98361.88
2022-12-27T03:10:19.064Z,98359.22
2022-12-27T03:13:35.455Z,98353.91
2022-12-27T03:16:17.864Z,98361.16
2022-12-27T03:19:09.807Z,98367.28
2022-12-27T03:22:13.383Z,98366.44
2022-12-27T03:26:58.073Z,98378.72
2022-12-27T03:29:44.101Z,98377.88
2022-12-27T03:32:32.773Z,98385.00
2022-12-27T03:35:13.076Z,98375.34
2022-12-27T03:38:01.734Z,98386.91
2022-12-27T03:41:01.540Z,98393.19
2022-12-27T03:43:28.768Z,98382.56
2022-12-27T03:46:36.440Z,98388.88
2022-12-27T03:49:32.288Z,98399.56
2022-12-27T03:52:07.720Z,98404.03
2022-12-27T03:54:38.181Z,98415.59
2022-12-27T03:57:11.689Z,98425.25
2022-12-27T03:59:39.090Z,98414.38
2022-12-27T04:02:08.547Z,98427.03
2022-12-27T04:04:36.388Z,98431.50
2022-12-27T04:07:03.773Z,98430.66
2022-12-27T04:09:48.679Z,98447.41
2022-12-27T04:12:34.151Z,98425.47
2022-12-27T04:15:19.647Z,98456.31
2022-12-27T04:18:04.920Z,98466.13
2022-12-27T04:20:50.762Z,98469.66
2022-12-27T04:23:36.124Z,98469.06
2022-12-27T04:26:21.328Z,98462.78
2022-12-27T04:29:06.313Z,98462.78
2022-12-27T04:31:51.824Z,98469.06
2022-12-27T04:34:37.045Z,98484.13
2022-12-27T04:37:04.084Z,98484.22
2022-12-27T04:39:30.980Z,98488.56
2022-12-27T04:42:16.093Z,98496.50
2022-12-27T04:45:01.255Z,98503.63
2022-12-27T04:47:46.561Z,98494.81
2022-12-27T04:50:41.032Z,98524.91
2022-12-27T04:53:31.071Z,98512.75
2022-12-27T04:55:57.874Z,98500.94
2022-12-27T04:58:25.301Z,98528.66
2022-12-27T05:01:14.348Z,98527.81
2022-12-27T05:03:42.081Z,98519.13
2022-12-27T05:06:08.798Z,98530.59
2022-12-27T05:08:54.693Z,98538.53
2022-12-27T05:11:39.911Z,98528.66
2022-12-27T05:14:11.278Z,98535.16
2022-12-27T05:16:41.372Z,98530.56
2022-12-27T05:19:12.912Z,98548.53
2022-12-27T05:22:01.794Z,98559.00
2022-12-27T05:24:48.347Z,98561.78
2022-12-27T05:27:15.538Z,98561.03
2022-12-27T05:29:42.101Z,98571.50
2022-12-27T05:32:13.006Z,98566.34
2022-12-27T05:34:40.414Z,98577.78
2022-12-27T05:37:06.948Z,98588.38
2022-12-27T05:39:33.569Z,98593.91
2022-12-27T05:42:00.150Z,98592.84
2022-12-27T05:44:26.960Z,98596.31
2022-12-27T05:46:56.466Z,98602.59
2022-12-27T05:49:23.307Z,98582.97
2022-12-27T05:51:49.846Z,98598.25
2022-12-27T05:54:16.712Z,98597.78
2022-12-27T05:56:43.277Z,98616.94
2022-12-27T05:59:09.789Z,98631.13
2022-12-27T06:01:36.492Z,98654.97
2022-12-27T06:04:03.161Z,98657.63
2022-12-27T06:06:29.669Z,98675.28
2022-12-27T06:08:56.242Z,98685.19
2022-12-27T06:11:22.801Z,98709.84
2022-12-27T06:13:53.688Z,98709.97
2022-12-27T06:16:22.464Z,98719.00
2022-12-27T06:18:49.428Z,98717.31
2022-12-27T06:21:20.966Z,98719.22
2022-12-27T06:23:48.835Z,98728.97
2022-12-27T06:26:17.055Z,98736.19
2022-12-27T06:28:43.825Z,98745.06
2022-12-27T06:31:11.125Z,98753.97
2022-12-27T06:33:37.865Z,98779.63
2022-12-27T06:36:13.497Z,98779.75
2022-12-27T06:38:40.953Z,98794.78
2022-12-27T06:41:10.706Z,98789.47
2022-12-27T06:43:38.493Z,98807.91
2022-12-27T06:46:15.215Z,98810.66
2022-12-27T06:48:46.618Z,98809.41
2022-12-27T06:51:14.321Z,98809.19
2022-12-27T06:53:41.716Z,98812.59
2022-12-27T06:56:11.361Z,98822.31
2022-12-27T06:58:38.737Z,98834.84
2022-12-27T07:01:18.018Z,98837.19
2022-12-27T07:03:49.418Z,98869.47
2022-12-27T07:06:16.240Z,98882.59
2022-12-27T07:08:43.007Z,98841.34
2022-12-27T07:11:11.819Z,98891.28
2022-12-27T07:13:40.818Z,98893.19
2022-12-27T07:16:09.702Z,98900.31
2022-12-27T07:18:36.446Z,98888.78
2022-12-27T07:21:08.723Z,98893.22
2022-12-27T07:23:38.536Z,98921.69
2022-12-27T07:26:10.710Z,98899.16
2022-12-27T07:28:37.858Z,98919.81
2022-12-27T07:31:09.391Z,98929.97
2022-12-27T07:33:37.110Z,98924.78
2022-12-27T07:36:05.446Z,98920.78
2022-12-27T07:38:32.026Z,98934.53
2022-12-27T07:41:00.174Z,98932.84
2022-12-27T07:43:30.664Z,98949.66
2022-12-27T07:46:03.916Z,98958.56
2022-12-27T07:48:30.560Z,98955.06
2022-12-27T07:50:58.118Z,98971.06
2022-12-27T07:53:24.675Z,98974.78
2022-12-27T07:55:53.718Z,98986.09
2022-12-27T07:58:20.927Z,98992.25
2022-12-27T08:00:49.612Z,98993.50
2022-12-27T08:03:18.123Z,99000.28
2022-12-27T08:05:46.803Z,99003.78
2022-12-27T08:08:19.567Z,99014.25
2022-12-27T08:10:46.122Z,99015.22
2022-12-27T08:13:12.610Z,99016.91
2022-12-27T08:15:42.554Z,99036.19
2022-12-27T08:18:09.974Z,99038.72
2022-12-27T08:20:36.857Z,99037.91
2022-12-27T08:23:03.397Z,99051.84
2022-12-27T08:25:30.834Z,99065.97
2022-12-27T08:28:06.093Z,99056.31
2022-12-27T08:30:33.089Z,99062.44
2022-12-27T08:33:01.456Z,99065.66
2022-12-27T08:35:54.799Z,99068.19
2022-12-27T08:38:15.791Z,99068.91
2022-12-27T08:40:44.970Z,99075.91
2022-12-27T08:43:12.079Z,99090.84
2022-12-27T08:45:39.971Z,99096.91
2022-12-27T08:48:06.952Z,99081.72
2022-12-27T08:50:34.013Z,99089.69
2022-12-27T08:53:02.567Z,99105.47
2022-12-27T08:55:30.439Z,99106.31
2022-12-27T08:58:01.093Z,99110.66
2022-12-27T09:00:28.338Z,99094.66
2022-12-27T09:02:58.186Z,99114.25
2022-12-27T09:05:26.724Z,99124.84
2022-12-27T09:07:53.541Z,99131.09
2022-12-27T09:10:21.503Z,99131.84
2022-12-27T09:12:48.157Z,99125.63
2022-12-27T09:15:14.737Z,99138.84
2022-12-27T09:17:41.875Z,99135.44
2022-12-27T09:20:09.233Z,99139.56
2022-12-27T09:22:35.954Z,99143.09
2022-12-27T09:25:02.707Z,99133.84
2022-12-27T09:27:29.422Z,99143.84
2022-12-27T09:29:55.967Z,99153.47
2022-12-27T09:32:27.331Z,99146.38
2022-12-27T09:34:56.494Z,99138.44
2022-12-27T09:37:23.019Z,99148.16
2022-12-27T09:39:49.956Z,99147.22
2022-12-27T09:42:53.490Z,99136.63
2022-12-27T09:45:37.263Z,99133.91
2022-12-27T09:48:12.087Z,99140.84
2022-12-27T09:51:25.148Z,99139.06
2022-12-27T09:53:51.572Z,99131.97
2022-12-27T09:56:40.568Z,99127.53
2022-12-27T09:59:23.901Z,99143.19
2022-12-27T10:01:50.948Z,99130.19
2022-12-27T10:04:18.982Z,99131.44
2022-12-27T10:06:45.595Z,99142.91
2022-12-27T10:09:48.563Z,99147.25
2022-12-27T10:12:31.624Z,99143.72
2022-12-27T10:15:23.200Z,99148.06
2022-12-27T10:18:14.771Z,99154.25
2022-12-27T10:20:47.535Z,99162.09
2022-12-27T10:23:20.503Z,99158.38
2022-12-27T10:25:47.390Z,99153.81
2022-12-27T10:28:22.861Z,99144.88
2022-12-27T10:30:49.553Z,99154.53
2022-12-27T10:33:30.414Z,99151.06
2022-12-27T10:35:58.162Z,99156.34
2022-12-27T10:38:25.260Z,99148.72
2022-12-27T10:41:02.434Z,99152.84
2022-12-27T10:43:36.489Z,99147.53
2022-12-27T10:46:32.206Z,99143.09
2022-12-27T10:49:21.305Z,99119.66
2022-12-27T10:51:49.850Z,99091.50
2022-12-27T10:54:23.198Z,99136.94
2022-12-27T10:56:50.529Z,99129.22
2022-12-27T10:59:19.878Z,99131.56
2022-12-27T11:02:08.337Z,99134.22
2022-12-27T11:04:35.005Z,99129.97
2022-12-27T11:07:02.096Z,99124.34
2022-12-27T11:09:34.504Z,99141.09
2022-12-27T11:12:24.523Z,99080.28
2022-12-27T11:15:04.364Z,99133.03
2022-12-27T11:17:40.708Z,99118.94
2022-12-27T11:20:21.404Z,99123.28
2022-12-27T11:22:59.217Z,99129.44
2022-12-27T11:25:28.060Z,99137.38
2022-12-27T11:27:58.887Z,99091.72
2022-12-27T11:30:31.542Z,99126.25
2022-12-27T11:33:05.690Z,99137.31
2022-12-27T11:35:36.586Z,99132.88
2022-12-27T11:38:03.689Z,99133.69
2022-12-27T11:40:34.661Z,99132.09
2022-12-27T11:43:12.495Z,99119.78
2022-12-27T11:45:44.295Z,99136.63
2022-12-27T11:48:22.986Z,99119.56
2022-12-27T11:51:01.801Z,99133.16
2022-12-27T11:53:56.266Z,99124.34
2022-12-27T11:56:29.370Z,99131.56
2022-12-27T11:59:20.925Z,99129.88
2022-12-27T12:02:18.827Z,99133.34
2022-12-27T12:05:07.424Z,99131.75
2022-12-27T12:07:36.848Z,99138.00
2022-12-27T12:10:28.169Z,99133.69
2022-12-27T12:13:30.180Z,99136.34
2022-12-27T12:16:09.000Z,99136.41
2022-12-27T12:19:07.495Z,99141.72
2022-12-27T12:21:50.209Z,99139.06
2022-12-27T12:24:48.865Z,99139.06
2022-12-27T12:27:22.215Z,99141.72
2022-12-27T12:30:07.389Z,99128.47
2022-12-27T12:32:58.841Z,99131.97
2022-12-27T12:35:39.972Z,99157.53
2022-12-27T12:38:34.022Z,99144.28
2022-12-27T12:41:13.230Z,99146.06
2022-12-27T12:44:03.901Z,99145.13
2022-12-27T12:46:37.712Z,99153.91
2022-12-27T12:49:33.922Z,99135.28
2022-12-27T12:52:15.764Z,99148.53
2022-12-27T12:55:01.025Z,99145.00
2022-12-27T12:57:42.685Z,99153.72
2022-12-27T13:00:51.086Z,99150.19
2022-12-27T13:03:39.264Z,99157.31
2022-12-27T13:06:31.937Z,99159.84
2022-12-27T13:09:03.619Z,99159.00
2022-12-27T13:11:41.949Z,99156.34
2022-12-27T13:14:32.547Z,99162.50
2022-12-27T13:17:08.585Z,99166.09
2022-12-27T13:19:37.956Z,99166.00
2022-12-27T13:22:13.521Z,99163.44
2022-12-27T13:24:52.364Z,99172.25
2022-12-27T13:27:35.589Z,99161.78
2022-12-27T13:30:24.178Z,99161.84
2022-12-27T13:33:00.129Z,99169.72
2022-12-27T13:36:04.954Z,99168.66
2022-12-27T13:38:48.656Z,99164.94
2022-12-27T13:41:28.021Z,99175.28
2022-12-27T13:44:10.088Z,99179.41
2022-12-27T13:46:54.058Z,99173.03
2022-12-27T13:49:26.519Z,99170.28
2022-12-27T13:52:00.683Z,99173.78
2022-12-27T13:55:02.485Z,99180.56
2022-12-27T13:57:58.420Z,99174.41
2022-12-27T14:00:31.958Z,99170.91
2022-12-27T14:03:22.397Z,99194.03
2022-12-27T14:05:54.806Z,99191.28
2022-12-27T14:08:56.963Z,99185.97
2022-12-27T14:11:41.726Z,99191.28
2022-12-27T14:14:12.396Z,99193.06
2022-12-27T14:16:59.051Z,99190.13
2022-12-27T14:20:01.696Z,99211.84
2022-12-27T14:22:55.764Z,99212.03
2022-12-27T14:26:07.129Z,99213.09
2022-12-27T14:29:12.263Z,99199.19
2022-12-27T14:32:07.237Z,99217.84
2022-12-27T14:34:59.818Z,99217.06
2022-12-27T14:38:04.588Z,99221.66
2022-12-27T14:41:06.843Z,99221.72
2022-12-27T14:43:51.649Z,99218.38
2022-12-27T14:46:48.654Z,99225.44
2022-12-27T14:49:33.523Z,99219.31
2022-12-27T14:52:22.177Z,99222.91
2022-12-27T14:55:23.864Z,99231.72
2022-12-27T14:58:24.217Z,99232.66
2022-12-27T15:01:04.870Z,99239.75
2022-12-27T15:03:43.656Z,99239.66
2022-12-27T15:06:26.591Z,99236.16
2022-12-27T15:09:13.636Z,99237.97
2022-12-27T15:12:24.573Z,99244.84
2022-12-27T15:15:09.991Z,99258.09
2022-12-27T15:17:55.180Z,99262.47
2022-12-27T15:20:44.793Z,99258.94
2022-12-27T15:23:26.507Z,99264.13
2022-12-27T15:26:30.624Z,99264.06
2022-12-27T15:29:26.898Z,99264.06
2022-12-27T15:32:24.854Z,99268.41
2022-12-27T15:34:54.483Z,99265.66
2022-12-27T15:37:45.686Z,99266.47
2022-12-27T15:40:32.526Z,99265.66
2022-12-27T15:43:08.718Z,99257.69
2022-12-27T15:45:44.343Z,99266.38
2022-12-27T15:48:35.246Z,99254.00
2022-12-27T15:51:26.988Z,99254.84
2022-12-27T15:54:19.583Z,99260.91
2022-12-27T15:56:49.376Z,99264.50
2022-12-27T15:59:37.663Z,99252.13
2022-12-27T16:02:54.137Z,99264.50
2022-12-27T16:05:20.813Z,99269.88
2022-12-27T16:07:50.157Z,99270.69
2022-12-27T16:10:30.386Z,99286.47
2022-12-27T16:13:23.098Z,99281.06
2022-12-27T16:15:52.144Z,99281.81
2022-12-27T16:18:22.305Z,99292.31
2022-12-27T16:20:58.450Z,99294.94
2022-12-27T16:23:29.511Z,99278.78
2022-12-27T16:26:08.087Z,99301.84
2022-12-27T16:28:37.300Z,99266.88
2022-12-27T16:31:12.396Z,99300.25
2022-12-27T16:33:40.995Z,99294.75
2022-12-27T16:36:19.718Z,99312.34
2022-12-27T16:39:14.141Z,99303.00
2022-12-27T16:41:49.734Z,99308.09
2022-12-27T16:44:19.113Z,99320.50
2022-12-27T16:46:54.992Z,99326.75
2022-12-27T16:49:51.275Z,99334.81
2022-12-27T16:52:30.029Z,99333.94
2022-12-27T16:55:17.723Z,99327.81
2022-12-27T16:57:49.206Z,99333.22
2022-12-27T17:00:42.298Z,99329.63
2022-12-27T17:03:20.938Z,99328.75
2022-12-27T17:06:30.220Z,99328.75
2022-12-27T17:08:39.317Z,99316.56
2022-12-27T17:11:30.696Z,99336.06
2022-12-27T17:14:12.585Z,99345.16
2022-12-27T17:16:48.035Z,99332.94
2022-12-27T17:19:20.096Z,99340.03
2022-12-27T17:21:53.609Z,99340.13
2022-12-27T17:24:23.105Z,99335.25
2022-12-27T17:26:55.605Z,99342.91
2022-12-27T17:29:51.539Z,99335.91
2022-12-27T17:32:30.418Z,99335.06
2022-12-27T17:35:30.349Z,99335.06
2022-12-27T17:38:15.731Z,99327.09
2022-12-27T17:41:11.847Z,99318.91
2022-12-27T17:44:06.141Z,99333.34
2022-12-27T17:46:50.887Z,99335.06
2022-12-27T17:49:17.889Z,99335.34
2022-12-27T17:52:05.731Z,99357.94
2022-12-27T17:54:50.910Z,99361.44
2022-12-27T17:57:54.679Z,99360.50
2022-12-27T18:00:23.825Z,99363.16
2022-12-27T18:02:52.140Z,99357.84
2022-12-27T18:05:27.220Z,99360.41
2022-12-27T18:08:07.054Z,99361.22
2022-12-27T18:10:36.622Z,99362.19
2022-12-27T18:13:06.670Z,99363.81
2022-12-27T18:15:43.021Z,99370.78
2022-12-27T18:18:16.113Z,99372.59
2022-12-27T18:20:43.414Z,99353.69
2022-12-27T18:23:11.845Z,99367.19
2022-12-27T18:25:44.472Z,99382.06
2022-12-27T18:28:34.182Z,99376.84
2022-12-27T18:31:38.067Z,99379.50
2022-12-27T18:34:28.340Z,99376.84
2022-12-27T18:37:07.256Z,99364.09
2022-12-27T18:39:37.021Z,99371.66
2022-12-27T18:42:20.024Z,99366.53
2022-12-27T18:44:55.184Z,99376.94
2022-12-27T18:47:24.904Z,99372.59
2022-12-27T18:50:00.092Z,99365.03
2022-12-27T18:52:36.017Z,99375.81
2022-12-27T18:55:16.243Z,99377.53
2022-12-27T18:57:46.699Z,99378.47
2022-12-27T19:00:24.338Z,99374.88
2022-12-27T19:02:52.739Z,99384.53
2022-12-27T19:05:19.318Z,99381.78
2022-12-27T19:08:15.980Z,99384.41
2022-12-27T19:10:51.716Z,99378.66
2022-12-27T19:13:26.601Z,99389.72
2022-12-27T19:15:55.492Z,99383.94
2022-12-27T19:18:42.665Z,99408.28
2022-12-27T19:21:23.103Z,99415.38
2022-12-27T19:23:50.353Z,99408.28
2022-12-27T19:26:17.173Z,99415.38
2022-12-27T19:28:46.540Z,99408.75
2022-12-27T19:31:18.525Z,99415.47
2022-12-27T19:33:51.062Z,99413.00
2022-12-27T19:36:25.544Z,99410.53
2022-12-27T19:38:58.137Z,99413.09
2022-12-27T19:41:25.158Z,99404.41
2022-12-27T19:43:54.532Z,99412.34
2022-12-27T19:46:27.109Z,99404.69
2022-12-27T19:54:14.775Z,99411.69
2022-12-27T19:56:41.849Z,99420.47
2022-12-27T19:59:15.701Z,99419.53
2022-12-27T20:01:42.759Z,99415.38
2022-12-27T20:04:11.728Z,99409.88
2022-12-27T20:06:38.663Z,99417.81
2022-12-27T20:09:07.815Z,99376.84
2022-12-27T20:11:34.983Z,99417.81
2022-12-27T20:14:01.706Z,99418.81
2022-12-27T20:16:30.486Z,99425.88
2022-12-27T20:19:08.832Z,99420.78
2022-12-27T20:21:35.856Z,99425.03
2022-12-27T20:24:02.689Z,99423.53
2022-12-27T20:26:32.289Z,99431.28
2022-12-27T20:29:02.336Z,99435.66
2022-12-27T20:31:29.151Z,99441.88
2022-12-27T20:33:59.436Z,99436.59
2022-12-27T20:36:29.390Z,99442.72
2022-12-27T20:39:04.619Z,99442.00
2022-12-27T20:41:31.365Z,99452.50
2022-12-27T20:44:04.761Z,99441.53
2022-12-27T20:46:31.645Z,99453.44
2022-12-27T20:51:34.639Z,99459.59
2022-12-27T20:54:13.064Z,99455.13
2022-12-27T20:56:50.116Z,99450.78
2022-12-27T20:59:28.523Z,99461.28
2022-12-27T21:02:11.535Z,99465.63
2022-12-27T21:04:38.439Z,99462.16
2022-12-27T21:07:05.842Z,99464.03
2022-12-27T21:09:34.040Z,99463.91
2022-12-27T21:12:00.721Z,99457.78
2022-12-27T21:14:34.079Z,99463.09
2022-12-27T21:17:01.010Z,99462.25
2022-12-27T21:19:27.683Z,99460.44
2022-12-27T21:21:54.475Z,99463.09
2022-12-27T21:24:21.117Z,99448.63
2022-12-27T21:26:53.268Z,99456.38
2022-12-27T21:29:22.988Z,99455.25
2022-12-27T21:31:49.657Z,99446.16
2022-12-27T21:34:16.895Z,99446.09
2022-12-27T21:36:43.663Z,99453.72
2022-12-27T21:39:10.759Z,99461.59
2022-12-27T21:41:39.898Z,99439.25
2022-12-27T21:44:09.652Z,99464.13
2022-12-27T21:46:44.833Z,99440.13
2022-12-27T21:49:18.875Z,99455.31
2022-12-27T21:51:45.595Z,99456.28
2022-12-27T21:54:14.118Z,99457.22
2022-12-27T21:56:40.957Z,99468.66
2022-12-27T21:59:13.705Z,99464.31
2022-12-27T22:01:50.535Z,99463.47
2022-12-27T22:04:20.992Z,99463.66
2022-12-27T22:06:48.152Z,99459.13
2022-12-27T22:09:19.138Z,99451.38
2022-12-27T22:11:46.346Z,99455.63
2022-12-27T22:14:12.968Z,99443.72
2022-12-27T22:16:40.116Z,99453.06
2022-12-27T22:19:11.920Z,99448.72
2022-12-27T22:21:42.095Z,99436.59
2022-12-27T22:24:12.689Z,99439.91
2022-12-27T22:26:39.513Z,99414.72
2022-12-27T22:29:07.893Z,99450.50
2022-12-27T22:31:36.621Z,99453.16
2022-12-27T22:34:06.543Z,99451.38
2022-12-27T22:36:37.210Z,99447.88
2022-12-27T22:39:04.393Z,99449.75
2022-12-27T22:41:36.061Z,99447.09
2022-12-27T22:44:08.632Z,99452.41
2022-12-27T22:49:22.248Z,99456.88
2022-12-27T22:51:48.799Z,99461.31
2022-12-27T22:54:15.402Z,99456.03
2022-12-27T22:56:42.793Z,99441.91
2022-12-27T22:59:17.291Z,99437.56
2022-12-27T23:01:46.089Z,99449.84
2022-12-27T23:04:14.127Z,99432.34
2022-12-27T23:06:41.470Z,99447.22
2022-12-27T23:11:32.730Z,99435.78
2022-12-27T23:13:59.286Z,99431.41
2022-12-27T23:16:26.675Z,99404.78
2022-12-27T23:18:53.487Z,99421.09
2022-12-27T23:21:24.156Z,99422.63
2022-12-27T23:23:52.490Z,99434.06
2022-12-27T23:26:22.140Z,99431.41
2022-12-27T23:28:51.071Z,99422.63
2022-12-27T23:31:18.924Z,99424.41
2022-12-27T23:33:45.730Z,99418.47
2022-12-27T23:36:13.418Z,99419.13
2022-12-27T23:38:41.521Z,99419.13
2022-12-27T23:41:08.950Z,99420.06
2022-12-27T23:46:15.949Z,99428.88
2022-12-27T23:48:44.364Z,99402.13
2022-12-27T23:51:12.743Z,99419.13
2022-12-27T23:53:39.503Z,99404.66
2022-12-27T23:56:14.656Z,99394.34
2022-12-27T23:58:42.012Z,99412.88
